Time;durP1;ratioP1;P1;durP2;ratioP2;P2;SDS_P1;SDS_P2;PMS_P1;PMS_P2;Temp;Humidity;BMP_temperature;BMP_pressure;BME280_temperature;BME280_humidity;BME280_pressure;Samples;Min_cycle;Max_cycle;Signal;HPM_P1;HPM_P2
2022/10/27 00:00:15;;;;;;;25.13;21.93;;;12.70;94.00;;;;;;5015555;28;20206;-91
2022/10/27 00:02:41;;;;;;;30.93;22.33;;;12.60;94.10;;;;;;5015464;28;20283;-90
2022/10/27 00:05:07;;;;;;;28.37;22.87;;;12.50;94.10;;;;;;5015726;28;20200;-90
2022/10/27 00:07:36;;;;;;;30.67;22.43;;;12.40;94.10;;;;;;5015433;28;20208;-91
2022/10/27 00:10:02;;;;;;;24.83;20.77;;;12.30;94.20;;;;;;5015319;28;20275;-90
2022/10/27 00:12:29;;;;;;;35.53;22.50;;;12.30;94.20;;;;;;5015582;28;20215;-91
2022/10/27 00:14:55;;;;;;;34.07;22.00;;;12.30;94.20;;;;;;5033076;28;20172;-90
2022/10/27 00:17:20;;;;;;;27.50;22.87;;;12.30;94.30;;;;;;5015379;28;20183;-91
2022/10/27 00:19:46;;;;;;;29.17;24.13;;;12.30;94.40;;;;;;5015359;28;20201;-90
2022/10/27 00:22:11;;;;;;;25.90;22.17;;;12.30;94.50;;;;;;5033125;28;20199;-90
2022/10/27 00:24:37;;;;;;;31.60;22.70;;;12.30;94.40;;;;;;5015357;28;20187;-90
2022/10/27 00:27:02;;;;;;;35.87;24.47;;;12.30;94.50;;;;;;5015290;28;20212;-90
2022/10/27 00:29:28;;;;;;;39.93;25.10;;;12.30;94.60;;;;;;5015438;28;20180;-90
2022/10/27 00:31:53;;;;;;;40.70;25.17;;;12.40;94.60;;;;;;5033089;28;20212;-90
2022/10/27 00:34:19;;;;;;;30.77;23.93;;;12.50;94.80;;;;;;5032943;28;20724;-90
2022/10/27 00:36:44;;;;;;;30.70;24.23;;;12.60;94.80;;;;;;5015255;28;20173;-90
2022/10/27 00:39:10;;;;;;;30.67;25.40;;;12.50;94.70;;;;;;5015104;28;20184;-91
2022/10/27 00:41:38;;;;;;;33.97;23.90;;;12.50;94.60;;;;;;5032860;28;20195;-90
2022/10/27 00:44:32;;;;;;;31.07;24.70;;;12.50;94.80;;;;;;5015447;28;20183;-90
2022/10/27 00:47:06;;;;;;;40.73;25.63;;;12.50;94.70;;;;;;5015917;28;20192;-90
2022/10/27 00:49:38;;;;;;;34.57;26.27;;;12.40;94.70;;;;;;5016026;28;20169;-90
2022/10/27 00:52:10;;;;;;;37.93;25.90;;;12.40;94.70;;;;;;5015111;28;20199;-90
2022/10/27 00:54:40;;;;;;;32.60;25.83;;;12.40;94.70;;;;;;5014984;28;20516;-91
2022/10/27 00:57:07;;;;;;;36.07;24.93;;;12.40;94.70;;;;;;5014990;28;20219;-90
2022/10/27 00:59:35;;;;;;;38.97;26.87;;;12.30;94.70;;;;;;5032653;28;20629;-90
2022/10/27 01:02:01;;;;;;;30.13;25.07;;;12.30;94.70;;;;;;5014932;28;20694;-90
2022/10/27 01:04:42;;;;;;;29.47;23.43;;;12.30;94.70;;;;;;5015047;28;20177;-91
2022/10/27 01:07:08;;;;;;;39.57;24.00;;;12.30;94.70;;;;;;5015105;28;20169;-91
2022/10/27 01:09:35;;;;;;;43.73;24.10;;;12.20;94.70;;;;;;5015374;28;20291;-90
2022/10/27 01:12:00;;;;;;;36.43;24.40;;;12.30;94.70;;;;;;5035924;28;20232;-91
2022/10/27 01:14:26;;;;;;;33.37;23.97;;;12.20;94.70;;;;;;5018407;28;20184;-91
2022/10/27 01:17:06;;;;;;;33.00;24.30;;;12.20;94.70;;;;;;5036076;28;20183;-90
2022/10/27 01:19:44;;;;;;;36.27;24.70;;;12.20;94.80;;;;;;5036294;28;20188;-91
2022/10/27 01:22:21;;;;;;;37.27;25.07;;;12.20;94.80;;;;;;5018242;28;20200;-91
2022/10/27 01:24:58;;;;;;;29.07;25.07;;;12.20;94.90;;;;;;5036014;28;20240;-90
2022/10/27 01:27:41;;;;;;;33.20;24.33;;;12.10;94.80;;;;;;5036058;28;20252;-91
2022/10/27 01:30:17;;;;;;;36.83;26.33;;;12.10;94.70;;;;;;5035868;28;20180;-90
2022/10/27 01:32:57;;;;;;;30.13;22.97;;;12.10;94.80;;;;;;5035565;28;20204;-90
2022/10/27 01:35:37;;;;;;;30.43;23.27;;;12.10;94.80;;;;;;5035748;28;20635;-91
2022/10/27 01:38:09;;;;;;;38.50;24.20;;;12.10;94.90;;;;;;5017876;28;20177;-90
2022/10/27 01:40:48;;;;;;;35.00;23.80;;;12.10;94.80;;;;;;5017917;28;20197;-90
2022/10/27 01:43:19;;;;;;;35.57;24.40;;;12.10;94.90;;;;;;5017896;28;20172;-90
2022/10/27 01:45:46;;;;;;;42.63;24.37;;;12.10;94.90;;;;;;5017843;28;20161;-91
2022/10/27 01:48:12;;;;;;;30.60;24.47;;;12.00;94.80;;;;;;5017789;28;20180;-91
2022/10/27 01:50:40;;;;;;;34.17;24.87;;;12.10;94.90;;;;;;5017692;28;20193;-90
2022/10/27 01:53:06;;;;;;;35.33;24.83;;;12.10;94.90;;;;;;5017564;28;20184;-91
2022/10/27 01:55:35;;;;;;;28.53;22.93;;;12.00;94.90;;;;;;5017678;28;20188;-90
2022/10/27 01:58:18;;;;;;;29.57;23.37;;;11.90;94.80;;;;;;5017612;28;20173;-90
2022/10/27 02:01:04;;;;;;;32.90;23.60;;;11.90;94.90;;;;;;5017488;28;20287;-90
2022/10/27 02:03:50;;;;;;;32.23;24.43;;;11.80;94.90;;;;;;5016415;28;20203;-90
2022/10/27 02:06:21;;;;;;;34.23;24.23;;;12.10;95.20;;;;;;5035236;28;20519;-91
2022/10/27 02:08:58;;;;;;;30.73;23.57;;;12.20;95.20;;;;;;5028668;28;20161;-90
2022/10/27 02:11:26;;;;;;;30.53;23.53;;;12.20;95.20;;;;;;5035213;28;20192;-90
2022/10/27 02:13:53;;;;;;;32.73;23.57;;;12.00;95.10;;;;;;5017247;28;20172;-90
2022/10/27 02:16:27;;;;;;;36.23;23.73;;;12.00;95.10;;;;;;5017276;28;20176;-91
2022/10/27 02:19:07;;;;;;;34.43;24.37;;;11.90;95.10;;;;;;5035029;28;20627;-90
2022/10/27 02:21:35;;;;;;;29.10;23.57;;;11.90;95.10;;;;;;5033843;28;20192;-90
2022/10/27 02:24:01;;;;;;;33.70;22.50;;;12.00;95.10;;;;;;5034730;28;20165;-91
2022/10/27 02:26:44;;;;;;;28.03;21.97;;;12.00;95.20;;;;;;5017009;28;20639;-90
2022/10/27 02:29:23;;;;;;;32.77;20.17;;;12.20;95.20;;;;;;5017043;28;20173;-90
2022/10/27 02:31:52;;;;;;;25.43;21.03;;;12.30;95.40;;;;;;5016876;28;20701;-90
2022/10/27 02:34:18;;;;;;;28.87;20.57;;;12.50;95.40;;;;;;5017098;28;20455;-90
2022/10/27 02:36:45;;;;;;;30.63;21.47;;;12.60;95.30;;;;;;5034600;28;20199;-91
2022/10/27 02:39:10;;;;;;;32.40;21.53;;;12.60;95.20;;;;;;5016820;28;20173;-90
2022/10/27 02:41:36;;;;;;;32.77;21.43;;;12.70;95.20;;;;;;5034441;28;20196;-90
2022/10/27 02:44:02;;;;;;;35.20;21.00;;;12.80;95.20;;;;;;5017899;28;20176;-90
2022/10/27 02:46:27;;;;;;;30.90;20.90;;;12.80;95.10;;;;;;5035528;28;20516;-90
2022/10/27 02:48:53;;;;;;;33.40;20.93;;;12.80;95.00;;;;;;5018010;28;20177;-91
2022/10/27 02:51:18;;;;;;;31.67;19.03;;;12.90;95.00;;;;;;5017733;28;20196;-91
2022/10/27 02:53:44;;;;;;;26.60;20.30;;;12.90;94.80;;;;;;5017736;28;20181;-91
2022/10/27 02:56:09;;;;;;;35.73;22.57;;;12.80;94.80;;;;;;5017812;28;20219;-91
2022/10/27 02:58:35;;;;;;;29.67;21.97;;;12.80;94.70;;;;;;5017771;28;20187;-90
2022/10/27 03:01:01;;;;;;;30.27;21.50;;;12.80;94.60;;;;;;5017439;28;20235;-91
2022/10/27 03:03:26;;;;;;;29.33;21.23;;;12.80;94.70;;;;;;5017487;28;20181;-91
2022/10/27 03:05:52;;;;;;;29.60;21.17;;;12.70;94.70;;;;;;5017840;28;20183;-91
2022/10/27 03:08:18;;;;;;;27.70;19.40;;;12.60;94.60;;;;;;5017578;28;20777;-91
2022/10/27 03:10:43;;;;;;;27.23;20.93;;;12.60;94.60;;;;;;5017511;28;20200;-91
2022/10/27 03:13:10;;;;;;;27.97;20.57;;;12.60;94.70;;;;;;5017562;28;20567;-91
2022/10/27 03:15:35;;;;;;;27.80;21.60;;;12.50;94.70;;;;;;5017420;28;20180;-91
2022/10/27 03:18:01;;;;;;;28.83;21.10;;;12.50;94.70;;;;;;5017399;28;20275;-91
2022/10/27 03:20:26;;;;;;;32.20;21.67;;;12.50;94.80;;;;;;5017924;28;20197;-91
2022/10/27 03:22:52;;;;;;;30.50;20.43;;;12.50;94.80;;;;;;5017642;28;20200;-91
2022/10/27 03:25:18;;;;;;;35.40;20.57;;;12.60;94.90;;;;;;5017486;28;20185;-91
2022/10/27 03:27:44;;;;;;;26.03;19.80;;;12.60;94.80;;;;;;5017641;28;20173;-91
2022/10/27 03:30:15;;;;;;;31.27;20.87;;;12.50;94.80;;;;;;5017494;28;20227;-91
2022/10/27 03:32:49;;;;;;;36.43;22.90;;;12.40;94.80;;;;;;5017154;28;20663;-91
2022/10/27 03:35:19;;;;;;;27.47;20.93;;;12.30;94.70;;;;;;5017012;28;20280;-91
2022/10/27 03:37:45;;;;;;;32.40;22.30;;;12.30;94.80;;;;;;5017129;28;20176;-91
2022/10/27 03:40:11;;;;;;;26.77;22.30;;;12.20;94.80;;;;;;5016771;28;20633;-91
2022/10/27 03:42:42;;;;;;;32.90;22.17;;;12.20;94.80;;;;;;5016593;28;20678;-91
2022/10/27 03:45:09;;;;;;;30.67;21.50;;;12.20;94.90;;;;;;5017284;28;20179;-90
2022/10/27 03:47:35;;;;;;;28.07;21.73;;;12.20;94.90;;;;;;5017190;28;20216;-90
2022/10/27 03:50:00;;;;;;;33.00;22.93;;;12.20;95.00;;;;;;5017476;28;20183;-91
2022/10/27 03:52:26;;;;;;;27.57;20.60;;;12.20;95.00;;;;;;5016758;28;20291;-91
2022/10/27 03:54:51;;;;;;;30.97;22.63;;;12.20;95.00;;;;;;5016889;28;20189;-91
2022/10/27 03:57:17;;;;;;;34.73;23.40;;;12.30;95.00;;;;;;5016831;28;20188;-90
2022/10/27 03:59:42;;;;;;;33.17;21.63;;;12.30;95.10;;;;;;5016677;28;20200;-91
2022/10/27 04:02:08;;;;;;;31.77;22.63;;;12.30;95.00;;;;;;5016686;28;20574;-90
2022/10/27 04:04:33;;;;;;;28.13;22.07;;;12.30;95.00;;;;;;5016795;28;20258;-91
2022/10/27 04:06:59;;;;;;;32.23;21.37;;;12.30;95.00;;;;;;5017035;28;20262;-91
2022/10/27 04:09:24;;;;;;;34.30;22.23;;;12.20;95.00;;;;;;5016940;28;20230;-90
2022/10/27 04:11:50;;;;;;;29.17;21.20;;;12.20;95.00;;;;;;5016425;28;20204;-91
2022/10/27 04:14:15;;;;;;;28.83;21.00;;;12.10;95.00;;;;;;5016543;28;20181;-90
2022/10/27 04:16:41;;;;;;;32.50;21.63;;;12.10;95.00;;;;;;5016669;28;20191;-90
2022/10/27 04:19:07;;;;;;;35.60;20.83;;;12.10;95.10;;;;;;5016386;28;20276;-91
2022/10/27 04:21:32;;;;;;;29.70;21.20;;;12.10;95.10;;;;;;5016318;28;20228;-91
2022/10/27 04:23:58;;;;;;;39.03;23.73;;;12.10;95.10;;;;;;5016543;28;20592;-91
2022/10/27 04:26:23;;;;;;;28.60;20.17;;;12.00;95.00;;;;;;5016679;28;20198;-91
2022/10/27 04:28:49;;;;;;;32.30;20.00;;;11.90;95.00;;;;;;5016943;28;20181;-91
2022/10/27 04:31:14;;;;;;;34.70;20.60;;;11.80;94.90;;;;;;5016514;28;20201;-91
2022/10/27 04:33:40;;;;;;;35.00;20.23;;;11.80;95.00;;;;;;5016939;28;20199;-91
2022/10/27 04:36:06;;;;;;;36.33;21.90;;;11.70;95.00;;;;;;5016718;28;20185;-91
2022/10/27 04:38:32;;;;;;;33.30;21.40;;;11.70;95.00;;;;;;5016679;28;20223;-91
2022/10/27 04:41:00;;;;;;;35.30;22.00;;;11.70;95.10;;;;;;5016692;28;20216;-91
2022/10/27 04:43:26;;;;;;;33.50;21.77;;;11.60;95.10;;;;;;5016596;28;20177;-90
2022/10/27 04:45:51;;;;;;;33.33;21.60;;;11.60;95.10;;;;;;5018845;28;20191;-91
2022/10/27 04:48:17;;;;;;;32.17;21.10;;;11.60;95.10;;;;;;5020585;28;20177;-91
2022/10/27 04:50:42;;;;;;;32.27;20.67;;;11.60;95.10;;;;;;5020294;28;20187;-91
2022/10/27 04:53:08;;;;;;;25.93;19.33;;;11.50;95.10;;;;;;5020330;28;20211;-91
2022/10/27 04:55:33;;;;;;;33.63;20.80;;;11.50;95.10;;;;;;5020215;28;20201;-91
2022/10/27 04:57:59;;;;;;;31.90;21.87;;;11.50;95.20;;;;;;5020238;28;20267;-91
2022/10/27 05:00:25;;;;;;;34.67;22.70;;;11.60;95.30;;;;;;5020486;28;20196;-91
2022/10/27 05:02:56;;;;;;;32.07;22.27;;;11.70;95.30;;;;;;5020149;28;20220;-91
2022/10/27 05:05:24;;;;;;;22.37;17.77;;;11.80;95.30;;;;;;5019863;28;20160;-91
2022/10/27 05:07:59;;;;;;;24.27;16.37;;;11.60;95.20;;;;;;5020407;28;20177;-91
2022/10/27 05:10:25;;;;;;;25.53;15.37;;;11.50;95.10;;;;;;5020311;28;20180;-91
2022/10/27 05:12:51;;;;;;;21.60;16.80;;;11.40;95.10;;;;;;5020294;28;20212;-91
2022/10/27 05:15:16;;;;;;;32.50;18.10;;;11.50;95.20;;;;;;5020171;28;20243;-91
2022/10/27 05:17:42;;;;;;;30.60;19.33;;;11.50;95.20;;;;;;5020038;28;20176;-91
2022/10/27 05:20:08;;;;;;;28.33;18.23;;;11.40;95.20;;;;;;5019858;28;20235;-91
2022/10/27 05:22:34;;;;;;;21.23;17.77;;;11.40;95.20;;;;;;5019865;28;20226;-90
2022/10/27 05:25:00;;;;;;;25.03;17.17;;;11.40;95.20;;;;;;5020045;28;20581;-91
2022/10/27 05:27:26;;;;;;;22.87;15.93;;;11.40;95.20;;;;;;5019770;28;20176;-91
2022/10/27 05:29:51;;;;;;;21.27;16.43;;;11.30;95.10;;;;;;5019799;28;20181;-91
2022/10/27 05:32:17;;;;;;;20.17;15.60;;;11.30;95.10;;;;;;5019502;28;20739;-91
2022/10/27 05:34:42;;;;;;;24.00;16.30;;;11.20;95.10;;;;;;5019622;28;20237;-91
2022/10/27 05:37:08;;;;;;;27.30;16.90;;;11.10;95.10;;;;;;5019730;28;20180;-90
2022/10/27 05:39:33;;;;;;;26.17;17.17;;;11.00;95.10;;;;;;5021018;28;20674;-92
2022/10/27 05:41:59;;;;;;;25.40;17.47;;;11.00;95.10;;;;;;5018893;28;20189;-91
2022/10/27 05:44:25;;;;;;;21.27;17.77;;;11.10;95.20;;;;;;5019658;28;20188;-91
2022/10/27 05:46:50;;;;;;;29.47;18.13;;;11.10;95.20;;;;;;5020212;28;20184;-91
2022/10/27 05:49:16;;;;;;;23.83;18.17;;;11.10;95.20;;;;;;5019352;28;20168;-91
2022/10/27 05:51:42;;;;;;;23.53;18.00;;;11.10;95.20;;;;;;5019590;28;20192;-91
2022/10/27 05:54:07;;;;;;;20.30;16.23;;;11.20;95.20;;;;;;5020016;28;20271;-91
2022/10/27 05:56:33;;;;;;;28.23;17.00;;;11.10;95.10;;;;;;5019135;28;20208;-91
2022/10/27 05:58:59;;;;;;;22.37;16.43;;;11.00;95.20;;;;;;5019421;28;20535;-91
2022/10/27 06:01:24;;;;;;;27.67;17.97;;;11.00;95.10;;;;;;5018813;28;20223;-91
2022/10/27 06:03:50;;;;;;;21.27;17.60;;;11.00;95.20;;;;;;5019380;28;20297;-91
2022/10/27 06:06:16;;;;;;;24.27;17.50;;;11.00;95.20;;;;;;5019000;28;20176;-91
2022/10/27 06:08:41;;;;;;;23.47;16.37;;;11.00;95.20;;;;;;5019125;28;20188;-91
2022/10/27 06:11:07;;;;;;;23.33;16.73;;;11.00;95.20;;;;;;5018862;28;20201;-92
2022/10/27 06:13:32;;;;;;;24.37;17.97;;;11.00;95.20;;;;;;5018905;28;20188;-91
2022/10/27 06:15:58;;;;;;;29.47;18.70;;;10.90;95.20;;;;;;5018556;28;20677;-91
2022/10/27 06:18:23;;;;;;;25.80;17.77;;;11.00;95.20;;;;;;5018669;28;20539;-91
2022/10/27 06:20:49;;;;;;;24.70;19.07;;;11.00;95.20;;;;;;5018710;28;20220;-91
2022/10/27 06:23:14;;;;;;;23.13;18.97;;;11.00;95.20;;;;;;5018358;28;20314;-91
2022/10/27 06:25:40;;;;;;;27.20;18.27;;;11.10;95.20;;;;;;5018348;28;20180;-91
2022/10/27 06:28:06;;;;;;;21.77;17.43;;;11.10;95.20;;;;;;5018359;28;20268;-91
2022/10/27 06:30:31;;;;;;;22.27;18.27;;;11.10;95.20;;;;;;5018391;28;20176;-91
2022/10/27 06:32:57;;;;;;;24.50;17.80;;;11.10;95.10;;;;;;5018004;28;20262;-91
2022/10/27 06:35:22;;;;;;;26.07;15.83;;;11.10;95.20;;;;;;5018381;28;20177;-91
2022/10/27 06:37:48;;;;;;;22.47;18.47;;;11.10;95.20;;;;;;5018378;28;20263;-91
2022/10/27 06:40:16;;;;;;;23.97;19.47;;;11.10;95.20;;;;;;5018281;28;20208;-91
2022/10/27 06:42:42;;;;;;;26.63;20.30;;;11.10;95.20;;;;;;5018131;28;20197;-91
2022/10/27 06:45:09;;;;;;;27.73;21.13;;;11.20;95.30;;;;;;5018288;28;20176;-91
2022/10/27 06:47:34;;;;;;;26.07;20.17;;;11.20;95.20;;;;;;5018362;28;20176;-91
2022/10/27 06:50:00;;;;;;;29.47;21.97;;;11.20;95.20;;;;;;5018309;28;20183;-91
2022/10/27 06:52:26;;;;;;;26.97;19.83;;;11.10;95.20;;;;;;5017842;28;20197;-91
2022/10/27 06:54:52;;;;;;;27.23;21.57;;;11.20;95.20;;;;;;5018291;28;20291;-91
2022/10/27 06:57:18;;;;;;;27.50;21.87;;;11.30;95.30;;;;;;5018161;28;20204;-91
2022/10/27 06:59:43;;;;;;;25.90;20.70;;;11.30;95.30;;;;;;5018248;28;20283;-91
2022/10/27 07:02:13;;;;;;;29.17;20.67;;;11.30;95.30;;;;;;5017889;28;20607;-91
2022/10/27 07:04:39;;;;;;;27.87;20.57;;;11.20;95.30;;;;;;5017603;28;20176;-91
2022/10/27 07:07:05;;;;;;;30.50;21.10;;;11.30;95.30;;;;;;5017564;28;20179;-90
2022/10/27 07:09:30;;;;;;;25.87;21.47;;;11.30;95.40;;;;;;5016470;28;20176;-90
2022/10/27 07:11:56;;;;;;;32.40;21.53;;;11.40;95.40;;;;;;5016927;28;20196;-90
2022/10/27 07:14:22;;;;;;;33.37;21.93;;;11.40;95.40;;;;;;5017300;28;20673;-89
2022/10/27 07:16:47;;;;;;;31.77;21.03;;;11.40;95.40;;;;;;5018095;28;20177;-92
2022/10/27 07:19:13;;;;;;;24.83;21.23;;;11.50;95.40;;;;;;5018348;28;20184;-91
2022/10/27 07:21:38;;;;;;;35.70;22.43;;;11.50;95.40;;;;;;5018069;28;20261;-90
2022/10/27 07:24:04;;;;;;;32.73;21.80;;;11.60;95.50;;;;;;5018335;28;20180;-90
2022/10/27 07:26:29;;;;;;;30.80;21.63;;;11.60;95.50;;;;;;5018074;28;20271;-90
2022/10/27 07:28:55;;;;;;;29.53;22.13;;;11.60;95.50;;;;;;5018376;28;20231;-90
2022/10/27 07:31:21;;;;;;;37.83;23.20;;;11.70;95.60;;;;;;5018015;28;20242;-90
2022/10/27 07:33:46;;;;;;;30.67;23.57;;;11.70;95.60;;;;;;5017580;28;20575;-90
2022/10/27 07:36:12;;;;;;;36.03;24.23;;;11.80;95.60;;;;;;5017746;28;20196;-90
2022/10/27 07:38:38;;;;;;;34.23;24.90;;;11.80;95.60;;;;;;5017997;28;20172;-90
2022/10/27 07:41:04;;;;;;;34.47;24.50;;;11.90;95.70;;;;;;5017644;28;20586;-90
2022/10/27 07:43:29;;;;;;;35.33;25.03;;;12.00;95.70;;;;;;5017860;28;20177;-91
2022/10/27 07:45:55;;;;;;;32.87;25.70;;;12.00;95.70;;;;;;5017434;28;20674;-91
2022/10/27 07:48:20;;;;;;;33.50;24.17;;;12.10;95.70;;;;;;5017142;28;20560;-90
2022/10/27 07:50:46;;;;;;;37.90;26.67;;;12.10;95.70;;;;;;5017500;28;20180;-90
2022/10/27 07:53:14;;;;;;;36.37;26.00;;;12.20;95.70;;;;;;5017744;28;20615;-90
2022/10/27 07:55:40;;;;;;;38.27;27.43;;;12.30;95.70;;;;;;5017557;28;20184;-90
2022/10/27 07:58:11;;;;;;;44.10;28.33;;;12.30;95.80;;;;;;5017544;28;20177;-91
2022/10/27 08:00:40;;;;;;;49.77;26.90;;;12.40;95.80;;;;;;5016731;28;20547;-90
2022/10/27 08:03:09;;;;;;;40.30;28.87;;;12.50;95.80;;;;;;5016817;28;20648;-90
2022/10/27 08:05:36;;;;;;;45.37;28.50;;;12.50;95.80;;;;;;5016417;28;20173;-90
2022/10/27 08:08:04;;;;;;;44.60;28.90;;;12.60;95.80;;;;;;5034177;28;20180;-91
2022/10/27 08:10:31;;;;;;;38.20;27.60;;;12.60;95.80;;;;;;5016808;28;20173;-91
2022/10/27 08:12:57;;;;;;;40.10;27.73;;;12.70;95.80;;;;;;5016648;28;20197;-90
2022/10/27 08:15:23;;;;;;;42.13;27.50;;;12.70;95.80;;;;;;5016610;28;20173;-91
2022/10/27 08:17:53;;;;;;;42.33;28.93;;;12.80;95.80;;;;;;5016291;28;20196;-91
2022/10/27 08:20:20;;;;;;;36.07;26.83;;;12.70;95.70;;;;;;5019009;28;20211;-90
2022/10/27 08:22:45;;;;;;;40.97;28.60;;;12.70;95.70;;;;;;5021287;28;20197;-90
2022/10/27 08:25:11;;;;;;;51.90;30.93;;;12.70;95.70;;;;;;5021401;28;20179;-89
2022/10/27 08:27:36;;;;;;;39.03;29.87;;;12.80;95.70;;;;;;5021964;28;20176;-89
2022/10/27 08:30:02;;;;;;;43.20;29.60;;;12.80;95.70;;;;;;5021313;28;20176;-89
2022/10/27 08:32:28;;;;;;;39.37;28.23;;;12.80;95.70;;;;;;5038706;28;20200;-89
2022/10/27 08:34:53;;;;;;;38.70;28.50;;;12.90;95.70;;;;;;5039990;28;20218;-89
2022/10/27 08:37:19;;;;;;;43.13;27.20;;;12.90;95.60;;;;;;5022728;28;20177;-90
2022/10/27 08:39:44;;;;;;;35.63;26.60;;;13.00;95.60;;;;;;5021485;28;20219;-90
2022/10/27 08:42:43;;;;;;;41.97;28.33;;;13.10;95.70;;;;;;5039172;28;20651;-90
2022/10/27 08:45:17;;;;;;;39.97;26.33;;;13.20;95.70;;;;;;5021306;28;20177;-90
2022/10/27 08:47:44;;;;;;;36.43;26.97;;;13.30;95.70;;;;;;5021105;28;20176;-90
2022/10/27 08:50:16;;;;;;;40.90;27.93;;;13.40;95.60;;;;;;5022334;28;20517;-89
2022/10/27 08:53:03;;;;;;;46.30;27.70;;;13.50;95.60;;;;;;5022094;28;20200;-90
2022/10/27 08:55:48;;;;;;;40.70;26.70;;;13.70;95.60;;;;;;5021057;28;20227;-90
2022/10/27 08:58:23;;;;;;;40.80;26.37;;;13.70;95.40;;;;;;5020911;28;20177;-90
2022/10/27 09:00:58;;;;;;;30.17;24.93;;;13.80;95.30;;;;;;5021685;28;20192;-90
2022/10/27 09:03:32;;;;;;;38.07;24.87;;;13.80;95.30;;;;;;5020692;28;20172;-91
2022/10/27 09:06:22;;;;;;;35.17;24.70;;;13.90;95.20;;;;;;5021422;28;20202;-90
2022/10/27 09:09:15;;;;;;;32.43;23.90;;;14.00;95.10;;;;;;5021350;28;20242;-89
2022/10/27 09:11:51;;;;;;;35.60;24.83;;;14.10;95.10;;;;;;5021163;28;20200;-90
2022/10/27 09:14:54;;;;;;;37.28;25.45;;;14.30;94.90;;;;;;5020583;28;20192;-89
2022/10/27 09:17:28;;;;;;;37.72;24.73;;;14.30;94.60;;;;;;5019667;28;20172;-89
2022/10/27 09:20:00;;;;;;;33.20;24.20;;;14.50;94.50;;;;;;5018487;28;20197;-89
2022/10/27 09:22:28;;;;;;;30.13;22.23;;;14.60;94.20;;;;;;5036631;28;20189;-89
2022/10/27 09:25:01;;;;;;;31.40;20.75;;;14.60;94.10;;;;;;5018531;28;20621;-89
2022/10/27 09:27:26;;;;;;;27.65;20.48;;;14.70;94.00;;;;;;5018942;28;20215;-90
2022/10/27 09:29:54;;;;;;;25.45;19.95;;;14.70;93.60;;;;;;5019562;28;20172;-90
2022/10/27 09:32:23;;;;;;;31.83;20.67;;;14.70;93.50;;;;;;5018832;28;20211;-89
2022/10/27 09:35:02;;;;;;;25.40;20.65;;;14.80;93.50;;;;;;5019953;28;20189;-90
2022/10/27 09:37:30;;;;;;;27.02;19.63;;;14.80;93.40;;;;;;5019130;28;20195;-88
2022/10/27 09:39:58;;;;;;;27.52;20.48;;;14.80;93.30;;;;;;5018968;28;20196;-91
2022/10/27 09:42:25;;;;;;;34.33;20.02;;;14.80;93.30;;;;;;5036246;28;20211;-91
2022/10/27 09:45:01;;;;;;;28.40;19.38;;;14.90;93.10;;;;;;5019013;28;20180;-91
2022/10/27 09:47:36;;;;;;;30.52;17.73;;;14.90;93.10;;;;;;5019004;28;20164;-91
2022/10/27 09:50:05;;;;;;;26.77;19.15;;;15.00;93.00;;;;;;5019319;28;20177;-91
2022/10/27 09:52:42;;;;;;;21.67;19.30;;;15.00;92.90;;;;;;5019229;28;20204;-91
2022/10/27 09:55:09;;;;;;;25.90;17.08;;;15.10;92.90;;;;;;5019417;28;20638;-91
2022/10/27 09:57:37;;;;;;;24.52;16.67;;;15.20;92.80;;;;;;5019775;28;20223;-90
2022/10/27 10:00:25;;;;;;;22.65;16.65;;;15.10;92.70;;;;;;5018894;28;20201;-90
2022/10/27 10:03:04;;;;;;;21.13;15.82;;;15.20;92.70;;;;;;5018539;28;20567;-91
2022/10/27 10:05:33;;;;;;;23.77;15.75;;;15.20;92.70;;;;;;5018967;28;20227;-90
2022/10/27 10:08:18;;;;;;;34.22;15.23;;;15.20;92.60;;;;;;5018666;28;20667;-90
2022/10/27 10:11:05;;;;;;;21.10;14.85;;;15.30;92.60;;;;;;5018875;28;20172;-90
2022/10/27 10:13:32;;;;;;;18.95;14.00;;;15.40;92.50;;;;;;5019814;28;20188;-90
2022/10/27 10:16:16;;;;;;;21.55;14.00;;;15.50;92.40;;;;;;5018607;28;20188;-90
2022/10/27 10:19:02;;;;;;;20.45;13.82;;;15.60;92.20;;;;;;5019000;28;20173;-90
2022/10/27 10:21:44;;;;;;;22.48;12.93;;;15.70;92.20;;;;;;5018465;28;20208;-90
2022/10/27 10:24:35;;;;;;;16.35;13.13;;;15.80;91.80;;;;;;5018836;28;20713;-91
2022/10/27 10:27:03;;;;;;;16.58;11.95;;;15.80;91.70;;;;;;5018456;28;20643;-90
2022/10/27 10:29:45;;;;;;;18.55;12.70;;;16.00;91.60;;;;;;5018423;28;20184;-90
2022/10/27 10:32:45;;;;;;;20.77;12.18;;;16.20;91.40;;;;;;5018558;28;20188;-90
2022/10/27 10:35:57;;;;;;;15.32;10.63;;;16.30;90.70;;;;;;5017778;28;20666;-90
2022/10/27 10:38:22;;;;;;;12.75;10.02;;;16.40;90.60;;;;;;5014036;28;20184;-89
2022/10/27 10:41:13;;;;;;;17.95;10.15;;;16.40;90.30;;;;;;5017243;28;20546;-89
2022/10/27 10:43:39;;;;;;;15.55;9.57;;;16.50;90.20;;;;;;5007566;28;20193;-90
2022/10/27 10:46:14;;;;;;;16.92;9.68;;;16.60;89.60;;;;;;5018226;28;20200;-90
2022/10/27 10:48:48;;;;;;;18.67;9.02;;;16.70;89.80;;;;;;5035131;28;20153;-89
2022/10/27 10:51:24;;;;;;;18.85;8.85;;;16.90;89.30;;;;;;5035245;28;20296;-90
2022/10/27 10:53:51;;;;;;;14.35;8.05;;;16.90;88.80;;;;;;5018171;28;20161;-91
2022/10/27 10:56:22;;;;;;;15.52;8.32;;;17.00;88.80;;;;;;5018361;28;20179;-91
2022/10/27 10:58:55;;;;;;;12.98;7.13;;;17.20;88.90;;;;;;5017439;28;20169;-90
2022/10/27 11:01:21;;;;;;;11.48;8.00;;;17.20;88.40;;;;;;5016988;28;20204;-90
2022/10/27 11:03:54;;;;;;;11.95;7.38;;;17.20;88.20;;;;;;5018667;28;20179;-90
2022/10/27 11:06:20;;;;;;;13.15;6.97;;;17.20;87.90;;;;;;5034886;28;20153;-90
2022/10/27 11:08:57;;;;;;;14.02;7.68;;;17.20;88.00;;;;;;5035434;28;20722;-90
2022/10/27 11:11:27;;;;;;;17.20;6.53;;;17.20;87.90;;;;;;5016988;28;20207;-90
2022/10/27 11:14:06;;;;;;;12.80;6.38;;;17.20;87.80;;;;;;5016765;28;20169;-90
2022/10/27 11:16:34;;;;;;;14.75;7.68;;;17.40;87.60;;;;;;5017352;28;20173;-90
2022/10/27 11:19:03;;;;;;;9.82;6.30;;;17.50;86.80;;;;;;5016782;28;20234;-90
2022/10/27 11:21:34;;;;;;;11.38;5.85;;;17.70;86.30;;;;;;5034258;28;20239;-90
2022/10/27 11:24:07;;;;;;;15.43;6.25;;;17.80;86.20;;;;;;5016749;28;20239;-90
2022/10/27 11:26:37;;;;;;;11.35;5.30;;;17.90;85.50;;;;;;5017216;28;20165;-90
2022/10/27 11:29:17;;;;;;;13.00;5.55;;;18.10;85.40;;;;;;5016900;28;20260;-90
2022/10/27 11:31:54;;;;;;;10.93;5.35;;;18.10;84.30;;;;;;5016787;28;20200;-89
2022/10/27 11:34:23;;;;;;;7.47;5.50;;;18.20;84.80;;;;;;5016610;28;20188;-90
2022/10/27 11:36:55;;;;;;;13.52;6.38;;;18.20;84.80;;;;;;5016564;28;20173;-89
2022/10/27 11:39:51;;;;;;;9.60;6.07;;;18.30;84.50;;;;;;5016657;28;20173;-89
2022/10/27 11:42:35;;;;;;;9.32;6.32;;;18.30;84.90;;;;;;5003950;28;20232;-90
2022/10/27 11:45:16;;;;;;;12.65;6.50;;;18.50;84.90;;;;;;5016522;28;20168;-90
2022/10/27 11:47:45;;;;;;;8.32;5.70;;;18.50;84.40;;;;;;5016402;28;20631;-90
2022/10/27 11:50:23;;;;;;;14.77;6.68;;;18.50;84.30;;;;;;5017148;28;20530;-92
2022/10/27 11:52:51;;;;;;;10.52;5.47;;;18.40;84.30;;;;;;5016924;28;20208;-91
2022/10/27 11:55:21;;;;;;;9.50;5.63;;;18.40;84.30;;;;;;5016618;28;20176;-90
2022/10/27 11:57:59;;;;;;;11.35;5.75;;;18.50;84.90;;;;;;5016703;28;20177;-90
2022/10/27 12:00:26;;;;;;;10.70;5.68;;;18.50;84.60;;;;;;5016565;28;20566;-91
2022/10/27 12:03:00;;;;;;;11.88;5.63;;;18.50;84.50;;;;;;5016539;28;20741;-90
2022/10/27 12:05:51;;;;;;;9.25;4.97;;;18.40;84.60;;;;;;5016510;28;20570;-90
2022/10/27 12:08:51;;;;;;;12.55;5.47;;;18.40;84.90;;;;;;5016890;28;20187;-92
2022/10/27 12:11:39;;;;;;;13.73;5.13;;;18.40;84.70;;;;;;5016494;28;20201;-91
2022/10/27 12:14:10;;;;;;;15.23;4.85;;;18.50;85.10;;;;;;5016836;28;20176;-91
2022/10/27 12:16:45;;;;;;;15.70;5.55;;;18.50;85.00;;;;;;5034540;28;20161;-92
2022/10/27 12:19:14;;;;;;;7.35;4.78;;;18.50;85.20;;;;;;5018424;28;20619;-91
2022/10/27 12:21:53;;;;;;;11.50;5.60;;;18.60;85.00;;;;;;5017135;28;20243;-92
2022/10/27 12:24:34;;;;;;;22.55;12.02;;;18.60;84.90;;;;;;5016385;28;20169;-91
2022/10/27 12:27:06;;;;;;;18.15;5.95;;;18.70;84.90;;;;;;5015952;28;20160;-89
2022/10/27 12:29:36;;;;;;;12.68;4.60;;;18.70;84.70;;;;;;5015834;28;20161;-89
2022/10/27 12:32:11;;;;;;;9.45;4.60;;;18.80;84.90;;;;;;5016166;28;20205;-89
2022/10/27 12:34:48;;;;;;;13.68;4.40;;;18.80;84.60;;;;;;5015808;28;20188;-88
2022/10/27 12:37:20;;;;;;;5.93;3.92;;;18.80;84.80;;;;;;5015875;28;20165;-89
2022/10/27 12:40:06;;;;;;;6.95;4.43;;;18.80;84.60;;;;;;5015599;28;20200;-89
2022/10/27 12:43:18;;;;;;;12.35;4.28;;;18.80;84.50;;;;;;5016599;28;20224;-89